createdAt,value
2022-12-18T00:16:45.794Z,26.70
2022-12-18T00:38:29.126Z,24.40
2022-12-18T01:00:15.641Z,21.20
2022-12-18T01:43:57.947Z,23.60
2022-12-18T02:38:16.944Z,22.20
2022-12-18T03:00:09.922Z,22.10
2022-12-18T03:21:59.424Z,23.10
2022-12-18T03:43:51.327Z,22.20
2022-12-18T04:05:39.088Z,22.70
2022-12-18T04:27:26.059Z,22.80
2022-12-18T04:49:12.503Z,23.50
2022-12-18T05:11:05.336Z,21.90
2022-12-18T05:32:51.244Z,21.60
2022-12-18T05:54:37.442Z,23.50
2022-12-18T06:38:07.672Z,32.10
2022-12-18T06:59:53.476Z,32.00
2022-12-18T07:21:39.386Z,32.90
2022-12-18T07:43:25.131Z,32.30
2022-12-18T08:27:13.459Z,27.30
2022-12-18T08:49:01.435Z,26.10
2022-12-18T09:10:50.033Z,26.30
2022-12-18T09:32:35.823Z,26.30
2022-12-18T10:16:18.708Z,27.70
2022-12-18T10:38:07.779Z,28.70
2022-12-18T10:59:58.704Z,30.40
2022-12-18T11:21:45.139Z,27.20
2022-12-18T11:43:34.206Z,23.40
2022-12-18T12:13:26.364Z,27.50
2022-12-18T12:35:27.383Z,29.30
2022-12-18T12:57:18.175Z,31.40
2022-12-18T13:28:17.797Z,34.10
2022-12-18T13:50:11.140Z,31.50
2022-12-18T14:12:18.610Z,34.40
2022-12-18T14:43:17.700Z,34.40
2022-12-18T15:43:44.398Z,35.90
2022-12-18T16:05:30.898Z,44.10
2022-12-18T16:27:16.648Z,47.00
2022-12-18T16:49:03.196Z,41.20
2022-12-18T17:10:48.891Z,42.60
2022-12-18T17:32:34.685Z,38.30
2022-12-18T17:54:20.599Z,39.90
2022-12-18T18:16:07.063Z,41.50
2022-12-18T18:37:52.912Z,44.30
2022-12-18T18:59:39.432Z,43.40
2022-12-18T19:43:25.180Z,50.90
2022-12-18T20:05:14.116Z,54.00
2022-12-18T20:43:45.058Z,56.90
2022-12-18T21:05:31.248Z,55.00
2022-12-18T21:27:18.121Z,56.90
2022-12-18T21:49:05.296Z,54.70
2022-12-18T22:10:50.957Z,52.90
2022-12-18T22:43:40.548Z,57.30
2022-12-18T23:05:26.293Z,56.30
2022-12-18T23:27:12.330Z,64.60
2022-12-18T23:49:00.187Z,67.10
